sensor_id;sensor_type;location;lat;lon;timestamp;pressure;altitude;pressure_sealevel;temperature;humidity
71917;BME280;59793;46.506;6.674;2023-05-20T00:02:18;97025.97;;;14.22;66.88
71917;BME280;59793;46.506;6.674;2023-05-20T00:04:43;97020.47;;;14.04;67.42
71917;BME280;59793;46.506;6.674;2023-05-20T00:07:08;97024.38;;;14.14;67.44
71917;BME280;59793;46.506;6.674;2023-05-20T00:09:37;97025.50;;;14.17;66.92
71917;BME280;59793;46.506;6.674;2023-05-20T00:12:02;97026.63;;;14.12;67.05
71917;BME280;59793;46.506;6.674;2023-05-20T00:14:27;97020.94;;;14.10;67.35
71917;BME280;59793;46.506;6.674;2023-05-20T00:16:53;97014.84;;;14.09;67.13
71917;BME280;59793;46.506;6.674;2023-05-20T00:19:18;97026.56;;;14.08;67.00
71917;BME280;59793;46.506;6.674;2023-05-20T00:21:43;97017.72;;;13.94;67.55
71917;BME280;59793;46.506;6.674;2023-05-20T00:24:09;97018.88;;;13.93;67.71
71917;BME280;59793;46.506;6.674;2023-05-20T00:26:34;97009.03;;;13.93;67.41
71917;BME280;59793;46.506;6.674;2023-05-20T00:28:59;97020.78;;;13.96;67.45
71917;BME280;59793;46.506;6.674;2023-05-20T00:31:25;97016.97;;;13.93;67.95
71917;BME280;59793;46.506;6.674;2023-05-20T00:33:50;97018.53;;;13.98;67.63
71917;BME280;59793;46.506;6.674;2023-05-20T00:36:15;97013.41;;;13.78;68.43
71917;BME280;59793;46.506;6.674;2023-05-20T00:38:40;97019.03;;;13.73;68.18
71917;BME280;59793;46.506;6.674;2023-05-20T00:41:06;97009.63;;;13.79;68.19
71917;BME280;59793;46.506;6.674;2023-05-20T00:43:31;97006.28;;;13.82;68.14
71917;BME280;59793;46.506;6.674;2023-05-20T00:45:56;97007.38;;;13.81;68.17
71917;BME280;59793;46.506;6.674;2023-05-20T00:48:22;97001.34;;;13.84;68.38
71917;BME280;59793;46.506;6.674;2023-05-20T00:50:48;97000.56;;;13.80;67.99
71917;BME280;59793;46.506;6.674;2023-05-20T00:53:15;96989.59;;;13.78;68.16
71917;BME280;59793;46.506;6.674;2023-05-20T00:55:41;96990.94;;;13.65;68.61
71917;BME280;59793;46.506;6.674;2023-05-20T00:58:06;96987.63;;;13.72;68.21
71917;BME280;59793;46.506;6.674;2023-05-20T01:00:31;96994.81;;;13.71;68.31
71917;BME280;59793;46.506;6.674;2023-05-20T01:02:58;96995.53;;;13.68;68.46
71917;BME280;59793;46.506;6.674;2023-05-20T01:05:24;96989.09;;;13.69;68.46
71917;BME280;59793;46.506;6.674;2023-05-20T01:07:50;96992.03;;;13.60;68.78
71917;BME280;59793;46.506;6.674;2023-05-20T01:10:15;96991.38;;;13.71;68.38
71917;BME280;59793;46.506;6.674;2023-05-20T01:12:45;96987.66;;;13.75;68.27
71917;BME280;59793;46.506;6.674;2023-05-20T01:15:13;96996.41;;;13.79;67.72
71917;BME280;59793;46.506;6.674;2023-05-20T01:17:42;96974.75;;;13.74;68.46
71917;BME280;59793;46.506;6.674;2023-05-20T01:20:08;96979.63;;;13.68;68.64
71917;BME280;59793;46.506;6.674;2023-05-20T01:22:45;96981.59;;;13.75;68.08
71917;BME280;59793;46.506;6.674;2023-05-20T01:25:11;96985.91;;;13.90;67.15
71917;BME280;59793;46.506;6.674;2023-05-20T01:27:37;96988.19;;;13.92;67.05
71917;BME280;59793;46.506;6.674;2023-05-20T01:30:03;96993.91;;;13.94;67.24
71917;BME280;59793;46.506;6.674;2023-05-20T01:32:31;96995.41;;;13.95;67.13
71917;BME280;59793;46.506;6.674;2023-05-20T01:34:59;96990.16;;;13.98;66.83
71917;BME280;59793;46.506;6.674;2023-05-20T01:37:25;96997.81;;;14.07;66.65
71917;BME280;59793;46.506;6.674;2023-05-20T01:39:51;96991.66;;;13.96;67.55
71917;BME280;59793;46.506;6.674;2023-05-20T01:42:17;96996.19;;;13.99;67.52
71917;BME280;59793;46.506;6.674;2023-05-20T01:44:43;97001.19;;;14.04;66.75
71917;BME280;59793;46.506;6.674;2023-05-20T01:47:09;96997.41;;;14.05;67.03
71917;BME280;59793;46.506;6.674;2023-05-20T01:49:35;96999.69;;;14.06;66.74
71917;BME280;59793;46.506;6.674;2023-05-20T01:52:00;96997.06;;;14.06;66.77
71917;BME280;59793;46.506;6.674;2023-05-20T01:54:27;96986.75;;;13.98;66.27
71917;BME280;59793;46.506;6.674;2023-05-20T01:56:52;96997.97;;;13.87;67.33
71917;BME280;59793;46.506;6.674;2023-05-20T01:59:17;96994.13;;;13.81;67.66
71917;BME280;59793;46.506;6.674;2023-05-20T02:01:43;96993.09;;;13.90;67.30
71917;BME280;59793;46.506;6.674;2023-05-20T02:04:09;97002.53;;;13.87;67.05
71917;BME280;59793;46.506;6.674;2023-05-20T02:06:34;96991.41;;;13.74;67.45
71917;BME280;59793;46.506;6.674;2023-05-20T02:08:59;96987.72;;;13.82;66.92
71917;BME280;59793;46.506;6.674;2023-05-20T02:11:25;96991.25;;;13.94;67.07
71917;BME280;59793;46.506;6.674;2023-05-20T02:13:50;96987.78;;;13.86;67.43
71917;BME280;59793;46.506;6.674;2023-05-20T02:16:16;96983.88;;;13.76;67.56
71917;BME280;59793;46.506;6.674;2023-05-20T02:18:41;96982.38;;;13.75;67.60
71917;BME280;59793;46.506;6.674;2023-05-20T02:21:06;96973.84;;;13.59;68.54
71917;BME280;59793;46.506;6.674;2023-05-20T02:23:32;96968.84;;;13.50;68.79
71917;BME280;59793;46.506;6.674;2023-05-20T02:25:57;96964.44;;;13.61;68.32
71917;BME280;59793;46.506;6.674;2023-05-20T02:28:22;96956.91;;;13.67;68.10
71917;BME280;59793;46.506;6.674;2023-05-20T02:30:48;96962.72;;;13.80;67.28
71917;BME280;59793;46.506;6.674;2023-05-20T02:33:15;96965.09;;;13.92;66.56
71917;BME280;59793;46.506;6.674;2023-05-20T02:35:40;96971.16;;;13.89;66.56
71917;BME280;59793;46.506;6.674;2023-05-20T02:38:07;96973.06;;;13.92;66.53
71917;BME280;59793;46.506;6.674;2023-05-20T02:40:32;96962.84;;;13.91;66.81
71917;BME280;59793;46.506;6.674;2023-05-20T02:42:58;96963.50;;;13.80;67.32
71917;BME280;59793;46.506;6.674;2023-05-20T02:45:24;96968.06;;;13.83;67.59
71917;BME280;59793;46.506;6.674;2023-05-20T02:47:49;96977.13;;;13.82;67.49
71917;BME280;59793;46.506;6.674;2023-05-20T02:50:14;96975.63;;;13.85;66.96
71917;BME280;59793;46.506;6.674;2023-05-20T02:52:40;96975.03;;;13.61;67.88
71917;BME280;59793;46.506;6.674;2023-05-20T02:55:06;96973.66;;;13.41;68.98
71917;BME280;59793;46.506;6.674;2023-05-20T02:57:32;96970.50;;;13.32;69.45
71917;BME280;59793;46.506;6.674;2023-05-20T02:59:59;96979.16;;;13.25;69.66
71917;BME280;59793;46.506;6.674;2023-05-20T03:02:24;96969.16;;;13.15;69.96
71917;BME280;59793;46.506;6.674;2023-05-20T03:04:49;96973.31;;;13.16;70.03
71917;BME280;59793;46.506;6.674;2023-05-20T03:07:14;96965.19;;;13.28;69.56
71917;BME280;59793;46.506;6.674;2023-05-20T03:09:43;96973.25;;;13.39;69.17
71917;BME280;59793;46.506;6.674;2023-05-20T03:12:08;96970.72;;;13.50;68.14
71917;BME280;59793;46.506;6.674;2023-05-20T03:14:33;96961.91;;;13.38;69.26
71917;BME280;59793;46.506;6.674;2023-05-20T03:16:59;96953.56;;;13.36;69.42
71917;BME280;59793;46.506;6.674;2023-05-20T03:19:24;96959.25;;;13.38;69.60
71917;BME280;59793;46.506;6.674;2023-05-20T03:21:49;96963.06;;;13.41;68.99
71917;BME280;59793;46.506;6.674;2023-05-20T03:24:18;96963.81;;;13.42;69.07
71917;BME280;59793;46.506;6.674;2023-05-20T03:26:44;96965.06;;;13.51;68.71
71917;BME280;59793;46.506;6.674;2023-05-20T03:29:11;96963.09;;;13.45;68.44
71917;BME280;59793;46.506;6.674;2023-05-20T03:31:36;96960.88;;;13.47;68.13
71917;BME280;59793;46.506;6.674;2023-05-20T03:34:02;96956.41;;;13.54;68.08
71917;BME280;59793;46.506;6.674;2023-05-20T03:36:27;96962.19;;;13.63;67.50
71917;BME280;59793;46.506;6.674;2023-05-20T03:38:52;96956.91;;;13.67;67.56
71917;BME280;59793;46.506;6.674;2023-05-20T03:41:19;96960.13;;;13.50;67.72
71917;BME280;59793;46.506;6.674;2023-05-20T03:43:44;96958.44;;;13.34;68.52
71917;BME280;59793;46.506;6.674;2023-05-20T03:46:10;96955.94;;;13.15;69.80
71917;BME280;59793;46.506;6.674;2023-05-20T03:48:35;96952.91;;;13.16;69.51
71917;BME280;59793;46.506;6.674;2023-05-20T03:51:00;96954.41;;;13.14;70.05
71917;BME280;59793;46.506;6.674;2023-05-20T03:53:26;96955.81;;;13.04;70.49
71917;BME280;59793;46.506;6.674;2023-05-20T03:55:51;96947.72;;;12.94;70.37
71917;BME280;59793;46.506;6.674;2023-05-20T03:58:20;96955.09;;;13.07;70.61
71917;BME280;59793;46.506;6.674;2023-05-20T04:00:46;96948.06;;;12.92;71.80
71917;BME280;59793;46.506;6.674;2023-05-20T04:03:11;96953.41;;;12.96;71.52
71917;BME280;59793;46.506;6.674;2023-05-20T04:05:36;96948.94;;;13.00;71.46
71917;BME280;59793;46.506;6.674;2023-05-20T04:08:04;96951.00;;;13.13;71.19
71917;BME280;59793;46.506;6.674;2023-05-20T04:10:29;96954.41;;;13.14;70.96
71917;BME280;59793;46.506;6.674;2023-05-20T04:12:56;96950.59;;;13.11;70.20
71917;BME280;59793;46.506;6.674;2023-05-20T04:15:21;96951.66;;;13.07;71.30
71917;BME280;59793;46.506;6.674;2023-05-20T04:17:47;96957.38;;;13.09;71.39
71917;BME280;59793;46.506;6.674;2023-05-20T04:20:14;96962.94;;;13.04;71.30
71917;BME280;59793;46.506;6.674;2023-05-20T04:22:45;96954.22;;;13.00;71.24
71917;BME280;59793;46.506;6.674;2023-05-20T04:25:10;96954.16;;;12.96;71.65
71917;BME280;59793;46.506;6.674;2023-05-20T04:27:37;96959.50;;;13.00;71.40
71917;BME280;59793;46.506;6.674;2023-05-20T04:30:12;96963.22;;;12.95;71.18
71917;BME280;59793;46.506;6.674;2023-05-20T04:32:38;96972.72;;;13.00;71.02
71917;BME280;59793;46.506;6.674;2023-05-20T04:35:04;96965.91;;;12.99;71.35
71917;BME280;59793;46.506;6.674;2023-05-20T04:37:33;96960.69;;;13.02;71.35
71917;BME280;59793;46.506;6.674;2023-05-20T04:39:58;96958.44;;;13.04;71.39
71917;BME280;59793;46.506;6.674;2023-05-20T04:42:27;96960.06;;;13.12;71.47
71917;BME280;59793;46.506;6.674;2023-05-20T04:44:53;96966.53;;;13.15;71.03
71917;BME280;59793;46.506;6.674;2023-05-20T04:47:20;96968.13;;;13.23;70.54
71917;BME280;59793;46.506;6.674;2023-05-20T04:49:45;96965.59;;;13.30;70.62
71917;BME280;59793;46.506;6.674;2023-05-20T04:52:11;96974.97;;;13.24;70.36
71917;BME280;59793;46.506;6.674;2023-05-20T04:54:36;96969.97;;;13.19;71.79
71917;BME280;59793;46.506;6.674;2023-05-20T04:57:01;96965.03;;;13.18;71.56
71917;BME280;59793;46.506;6.674;2023-05-20T04:59:27;96966.69;;;13.26;71.00
71917;BME280;59793;46.506;6.674;2023-05-20T05:01:52;96964.16;;;13.10;71.16
71917;BME280;59793;46.506;6.674;2023-05-20T05:04:17;96972.06;;;13.33;70.54
71917;BME280;59793;46.506;6.674;2023-05-20T05:06:42;96961.00;;;13.57;69.98
71917;BME280;59793;46.506;6.674;2023-05-20T05:09:08;96961.88;;;13.69;69.62
71917;BME280;59793;46.506;6.674;2023-05-20T05:11:33;96958.88;;;13.74;69.53
71917;BME280;59793;46.506;6.674;2023-05-20T05:13:59;96957.75;;;13.71;69.21
71917;BME280;59793;46.506;6.674;2023-05-20T05:16:24;96952.81;;;13.73;69.53
71917;BME280;59793;46.506;6.674;2023-05-20T05:18:49;96948.22;;;13.67;69.27
71917;BME280;59793;46.506;6.674;2023-05-20T05:21:15;96952.06;;;13.73;69.34
71917;BME280;59793;46.506;6.674;2023-05-20T05:23:40;96955.88;;;13.75;69.46
71917;BME280;59793;46.506;6.674;2023-05-20T05:26:06;96940.44;;;13.84;68.85
71917;BME280;59793;46.506;6.674;2023-05-20T05:28:31;96944.09;;;13.69;69.50
71917;BME280;59793;46.506;6.674;2023-05-20T05:30:57;96950.09;;;14.03;68.41
71917;BME280;59793;46.506;6.674;2023-05-20T05:33:22;96945.56;;;14.04;68.05
71917;BME280;59793;46.506;6.674;2023-05-20T05:35:47;96944.22;;;14.24;67.30
71917;BME280;59793;46.506;6.674;2023-05-20T05:38:12;96946.50;;;14.26;66.77
71917;BME280;59793;46.506;6.674;2023-05-20T05:40:38;96951.59;;;14.49;65.90
71917;BME280;59793;46.506;6.674;2023-05-20T05:43:03;96953.56;;;14.11;67.58
71917;BME280;59793;46.506;6.674;2023-05-20T05:45:28;96948.66;;;14.13;67.62
71917;BME280;59793;46.506;6.674;2023-05-20T05:47:54;96948.53;;;13.99;67.14
71917;BME280;59793;46.506;6.674;2023-05-20T05:50:19;96944.94;;;14.21;67.39
71917;BME280;59793;46.506;6.674;2023-05-20T05:52:44;96935.25;;;14.40;67.39
71917;BME280;59793;46.506;6.674;2023-05-20T05:55:10;96939.88;;;14.50;67.01
71917;BME280;59793;46.506;6.674;2023-05-20T05:57:36;96932.91;;;14.34;67.45
71917;BME280;59793;46.506;6.674;2023-05-20T06:00:02;96937.59;;;14.52;67.25
71917;BME280;59793;46.506;6.674;2023-05-20T06:02:37;96938.28;;;14.38;66.79
71917;BME280;59793;46.506;6.674;2023-05-20T06:05:02;96941.88;;;14.64;66.86
71917;BME280;59793;46.506;6.674;2023-05-20T06:07:28;96943.16;;;14.88;64.84
71917;BME280;59793;46.506;6.674;2023-05-20T06:09:53;96941.41;;;14.54;65.86
71917;BME280;59793;46.506;6.674;2023-05-20T06:12:18;96943.44;;;14.24;66.50
71917;BME280;59793;46.506;6.674;2023-05-20T06:14:44;96942.00;;;14.33;66.05
71917;BME280;59793;46.506;6.674;2023-05-20T06:17:09;96935.25;;;14.40;66.32
71917;BME280;59793;46.506;6.674;2023-05-20T06:19:34;96926.72;;;14.16;67.23
71917;BME280;59793;46.506;6.674;2023-05-20T06:22:00;96925.25;;;14.19;67.05
71917;BME280;59793;46.506;6.674;2023-05-20T06:24:25;96922.16;;;14.13;67.12
71917;BME280;59793;46.506;6.674;2023-05-20T06:26:50;96929.78;;;14.18;67.60
71917;BME280;59793;46.506;6.674;2023-05-20T06:29:16;96931.19;;;14.53;66.09
71917;BME280;59793;46.506;6.674;2023-05-20T06:31:41;96931.34;;;14.26;66.27
71917;BME280;59793;46.506;6.674;2023-05-20T06:34:06;96934.66;;;14.13;67.02
71917;BME280;59793;46.506;6.674;2023-05-20T06:36:32;96929.69;;;14.07;67.09
71917;BME280;59793;46.506;6.674;2023-05-20T06:38:57;96922.06;;;14.02;67.15
71917;BME280;59793;46.506;6.674;2023-05-20T06:41:22;96916.75;;;14.02;67.30
71917;BME280;59793;46.506;6.674;2023-05-20T06:43:47;96917.56;;;14.03;67.37
71917;BME280;59793;46.506;6.674;2023-05-20T06:46:18;96921.97;;;14.36;66.35
71917;BME280;59793;46.506;6.674;2023-05-20T06:48:43;96915.38;;;14.67;65.51
71917;BME280;59793;46.506;6.674;2023-05-20T06:51:08;96910.13;;;14.74;65.39
71917;BME280;59793;46.506;6.674;2023-05-20T06:53:34;96914.44;;;15.11;64.30
71917;BME280;59793;46.506;6.674;2023-05-20T06:55:59;96916.88;;;15.52;62.61
71917;BME280;59793;46.506;6.674;2023-05-20T06:58:26;96916.75;;;15.16;63.20
71917;BME280;59793;46.506;6.674;2023-05-20T07:00:51;96907.38;;;14.60;64.91
71917;BME280;59793;46.506;6.674;2023-05-20T07:03:17;96907.34;;;14.53;65.71
71917;BME280;59793;46.506;6.674;2023-05-20T07:05:42;96914.56;;;14.56;65.39
71917;BME280;59793;46.506;6.674;2023-05-20T07:08:08;96909.78;;;14.28;66.83
71917;BME280;59793;46.506;6.674;2023-05-20T07:10:33;96914.47;;;14.45;65.65
71917;BME280;59793;46.506;6.674;2023-05-20T07:12:58;96915.69;;;14.58;65.34
71917;BME280;59793;46.506;6.674;2023-05-20T07:15:24;96904.47;;;14.83;65.30
71917;BME280;59793;46.506;6.674;2023-05-20T07:17:49;96909.16;;;15.15;64.02
71917;BME280;59793;46.506;6.674;2023-05-20T07:20:14;96901.09;;;14.93;63.72
71917;BME280;59793;46.506;6.674;2023-05-20T07:22:40;96899.22;;;14.94;65.05
71917;BME280;59793;46.506;6.674;2023-05-20T07:25:05;96903.00;;;14.93;65.29
71917;BME280;59793;46.506;6.674;2023-05-20T07:27:31;96908.72;;;15.02;64.56
71917;BME280;59793;46.506;6.674;2023-05-20T07:29:56;96902.84;;;15.51;62.60
71917;BME280;59793;46.506;6.674;2023-05-20T07:32:21;96899.09;;;15.88;60.63
71917;BME280;59793;46.506;6.674;2023-05-20T07:34:46;96902.41;;;15.42;63.00
71917;BME280;59793;46.506;6.674;2023-05-20T07:37:12;96890.59;;;15.22;63.72
71917;BME280;59793;46.506;6.674;2023-05-20T07:39:37;96887.63;;;15.38;64.18
71917;BME280;59793;46.506;6.674;2023-05-20T07:42:02;96890.38;;;15.81;62.08
71917;BME280;59793;46.506;6.674;2023-05-20T07:44:28;96894.94;;;16.12;60.98
71917;BME280;59793;46.506;6.674;2023-05-20T07:46:53;96896.44;;;16.28;60.99
71917;BME280;59793;46.506;6.674;2023-05-20T07:49:19;96887.31;;;16.36;60.83
71917;BME280;59793;46.506;6.674;2023-05-20T07:51:44;96892.63;;;16.36;60.44
71917;BME280;59793;46.506;6.674;2023-05-20T07:54:10;96889.63;;;16.27;60.25
71917;BME280;59793;46.506;6.674;2023-05-20T07:56:36;96892.28;;;16.19;60.95
71917;BME280;59793;46.506;6.674;2023-05-20T07:59:01;96883.94;;;16.03;62.06
71917;BME280;59793;46.506;6.674;2023-05-20T08:01:27;96884.31;;;16.01;60.77
71917;BME280;59793;46.506;6.674;2023-05-20T08:03:52;96883.16;;;16.17;59.95
71917;BME280;59793;46.506;6.674;2023-05-20T08:06:18;96879.00;;;16.12;60.56
71917;BME280;59793;46.506;6.674;2023-05-20T08:08:44;96884.31;;;16.19;59.90
71917;BME280;59793;46.506;6.674;2023-05-20T08:11:10;96878.97;;;16.44;58.74
71917;BME280;59793;46.506;6.674;2023-05-20T08:13:35;96871.72;;;16.45;58.58
71917;BME280;59793;46.506;6.674;2023-05-20T08:16:01;96876.66;;;16.57;59.66
71917;BME280;59793;46.506;6.674;2023-05-20T08:18:29;96870.63;;;16.28;59.02
71917;BME280;59793;46.506;6.674;2023-05-20T08:20:54;96866.44;;;16.31;60.78
71917;BME280;59793;46.506;6.674;2023-05-20T08:23:20;96863.00;;;16.41;59.90
71917;BME280;59793;46.506;6.674;2023-05-20T08:25:46;96859.91;;;16.64;58.89
71917;BME280;59793;46.506;6.674;2023-05-20T08:28:12;96856.88;;;16.76;58.88
71917;BME280;59793;46.506;6.674;2023-05-20T08:30:37;96867.50;;;16.76;58.72
71917;BME280;59793;46.506;6.674;2023-05-20T08:33:03;96862.16;;;16.83;57.87
71917;BME280;59793;46.506;6.674;2023-05-20T08:35:28;96861.31;;;17.04;57.68
71917;BME280;59793;46.506;6.674;2023-05-20T08:37:53;96848.63;;;17.30;56.84
71917;BME280;59793;46.506;6.674;2023-05-20T08:40:19;96851.84;;;16.92;57.75
71917;BME280;59793;46.506;6.674;2023-05-20T08:42:46;96860.63;;;16.89;57.73
71917;BME280;59793;46.506;6.674;2023-05-20T08:45:13;96853.78;;;16.81;57.93
71917;BME280;59793;46.506;6.674;2023-05-20T08:47:40;96859.97;;;16.32;60.03
71917;BME280;59793;46.506;6.674;2023-05-20T08:50:07;96859.91;;;16.75;58.79
71917;BME280;59793;46.506;6.674;2023-05-20T08:52:34;96866.00;;;16.75;59.39
71917;BME280;59793;46.506;6.674;2023-05-20T08:55:01;96858.09;;;16.25;59.38
71917;BME280;59793;46.506;6.674;2023-05-20T08:57:27;96863.06;;;16.09;60.84
71917;BME280;59793;46.506;6.674;2023-05-20T08:59:53;96859.22;;;16.28;60.34
71917;BME280;59793;46.506;6.674;2023-05-20T09:02:18;96856.19;;;16.29;60.65
71917;BME280;59793;46.506;6.674;2023-05-20T09:04:43;96860.66;;;16.79;58.93
71917;BME280;59793;46.506;6.674;2023-05-20T09:07:08;96863.25;;;17.00;57.93
71917;BME280;59793;46.506;6.674;2023-05-20T09:09:34;96851.88;;;16.82;58.24
71917;BME280;59793;46.506;6.674;2023-05-20T09:12:00;96850.47;;;17.43;56.12
71917;BME280;59793;46.506;6.674;2023-05-20T09:14:28;96852.34;;;18.02;55.86
71917;BME280;59793;46.506;6.674;2023-05-20T09:16:54;96849.94;;;18.15;53.91
71917;BME280;59793;46.506;6.674;2023-05-20T09:19:23;96847.47;;;18.35;53.08
71917;BME280;59793;46.506;6.674;2023-05-20T09:21:50;96841.91;;;18.19;53.76
71917;BME280;59793;46.506;6.674;2023-05-20T09:24:22;96842.94;;;18.32;54.53
71917;BME280;59793;46.506;6.674;2023-05-20T09:26:48;96839.31;;;17.59;55.07
71917;BME280;59793;46.506;6.674;2023-05-20T09:29:14;96848.44;;;16.92;58.00
71917;BME280;59793;46.506;6.674;2023-05-20T09:31:39;96843.72;;;17.25;57.10
71917;BME280;59793;46.506;6.674;2023-05-20T09:34:06;96842.88;;;17.38;56.40
71917;BME280;59793;46.506;6.674;2023-05-20T09:36:33;96844.53;;;17.74;55.86
71917;BME280;59793;46.506;6.674;2023-05-20T09:38:59;96837.69;;;18.21;55.08
71917;BME280;59793;46.506;6.674;2023-05-20T09:41:32;96840.94;;;17.98;55.42
71917;BME280;59793;46.506;6.674;2023-05-20T09:43:59;96851.03;;;18.59;53.39
71917;BME280;59793;46.506;6.674;2023-05-20T09:46:25;96837.81;;;18.82;52.58
71917;BME280;59793;46.506;6.674;2023-05-20T09:48:50;96839.44;;;19.07;51.32
71917;BME280;59793;46.506;6.674;2023-05-20T09:51:16;96840.03;;;18.91;51.73
71917;BME280;59793;46.506;6.674;2023-05-20T09:53:42;96840.38;;;18.59;54.32
71917;BME280;59793;46.506;6.674;2023-05-20T09:56:08;96833.91;;;18.19;55.08
71917;BME280;59793;46.506;6.674;2023-05-20T09:58:34;96843.72;;;18.67;52.67
71917;BME280;59793;46.506;6.674;2023-05-20T10:01:00;96841.78;;;18.67;52.39
71917;BME280;59793;46.506;6.674;2023-05-20T10:03:25;96852.38;;;17.99;54.75
71917;BME280;59793;46.506;6.674;2023-05-20T10:06:01;96857.84;;;17.74;55.98
71917;BME280;59793;46.506;6.674;2023-05-20T10:08:38;96852.78;;;17.94;54.93
71917;BME280;59793;46.506;6.674;2023-05-20T10:11:15;96852.25;;;18.13;55.28
71917;BME280;59793;46.506;6.674;2023-05-20T10:13:52;96848.41;;;17.65;56.38
71917;BME280;59793;46.506;6.674;2023-05-20T10:18:54;96844.13;;;18.61;54.86
71917;BME280;59793;46.506;6.674;2023-05-20T10:21:22;96850.41;;;18.44;53.42
71917;BME280;59793;46.506;6.674;2023-05-20T10:23:49;96848.03;;;18.15;53.90
71917;BME280;59793;46.506;6.674;2023-05-20T10:26:15;96843.50;;;18.50;53.17
71917;BME280;59793;46.506;6.674;2023-05-20T10:28:40;96841.03;;;18.67;51.82
71917;BME280;59793;46.506;6.674;2023-05-20T10:31:16;96848.41;;;18.90;51.68
71917;BME280;59793;46.506;6.674;2023-05-20T10:33:42;96837.38;;;18.53;52.46
71917;BME280;59793;46.506;6.674;2023-05-20T10:36:07;96841.50;;;18.24;54.26
71917;BME280;59793;46.506;6.674;2023-05-20T10:38:34;96841.50;;;18.24;53.73
71917;BME280;59793;46.506;6.674;2023-05-20T10:41:08;96841.16;;;18.18;54.35
71917;BME280;59793;46.506;6.674;2023-05-20T10:43:36;96835.78;;;17.77;54.99
71917;BME280;59793;46.506;6.674;2023-05-20T10:46:02;96832.72;;;17.82;55.25
71917;BME280;59793;46.506;6.674;2023-05-20T10:48:28;96832.06;;;17.63;55.95
71917;BME280;59793;46.506;6.674;2023-05-20T10:50:57;96826.31;;;17.68;55.51
71917;BME280;59793;46.506;6.674;2023-05-20T10:53:24;96822.84;;;17.75;55.48
71917;BME280;59793;46.506;6.674;2023-05-20T10:55:50;96829.38;;;18.12;54.36
71917;BME280;59793;46.506;6.674;2023-05-20T10:58:16;96831.13;;;18.29;53.96
71917;BME280;59793;46.506;6.674;2023-05-20T11:00:42;96840.66;;;18.27;53.94
71917;BME280;59793;46.506;6.674;2023-05-20T11:03:07;96833.50;;;18.58;53.03
71917;BME280;59793;46.506;6.674;2023-05-20T11:05:33;96835.03;;;18.59;52.72
71917;BME280;59793;46.506;6.674;2023-05-20T11:07:59;96828.75;;;18.76;52.88
71917;BME280;59793;46.506;6.674;2023-05-20T11:10:25;96827.47;;;18.88;52.78
71917;BME280;59793;46.506;6.674;2023-05-20T11:12:50;96819.13;;;18.82;53.79
71917;BME280;59793;46.506;6.674;2023-05-20T11:15:16;96823.81;;;18.37;55.03
71917;BME280;59793;46.506;6.674;2023-05-20T11:17:51;96827.78;;;18.59;53.57
71917;BME280;59793;46.506;6.674;2023-05-20T11:20:17;96825.41;;;18.31;54.39
71917;BME280;59793;46.506;6.674;2023-05-20T11:22:43;96823.91;;;18.64;54.59
71917;BME280;59793;46.506;6.674;2023-05-20T11:25:08;96812.59;;;18.15;55.87
71917;BME280;59793;46.506;6.674;2023-05-20T11:27:34;96815.97;;;17.81;55.09
71917;BME280;59793;46.506;6.674;2023-05-20T11:30:02;96813.94;;;17.40;57.54
71917;BME280;59793;46.506;6.674;2023-05-20T11:32:29;96799.00;;;18.06;56.69
71917;BME280;59793;46.506;6.674;2023-05-20T11:34:55;96805.66;;;18.25;56.87
71917;BME280;59793;46.506;6.674;2023-05-20T11:37:20;96801.16;;;18.18;56.65
71917;BME280;59793;46.506;6.674;2023-05-20T11:39:48;96806.22;;;18.43;55.47
71917;BME280;59793;46.506;6.674;2023-05-20T11:42:16;96812.03;;;17.97;57.22
71917;BME280;59793;46.506;6.674;2023-05-20T11:44:42;96803.72;;;18.29;57.13
71917;BME280;59793;46.506;6.674;2023-05-20T11:47:09;96801.41;;;18.65;55.49
71917;BME280;59793;46.506;6.674;2023-05-20T11:49:40;96804.66;;;18.83;56.06
71917;BME280;59793;46.506;6.674;2023-05-20T11:52:08;96797.91;;;18.37;57.07
71917;BME280;59793;46.506;6.674;2023-05-20T11:54:36;96789.13;;;18.37;56.07
71917;BME280;59793;46.506;6.674;2023-05-20T11:57:01;96786.63;;;18.91;54.65
71917;BME280;59793;46.506;6.674;2023-05-20T11:59:27;96785.84;;;18.26;55.49
71917;BME280;59793;46.506;6.674;2023-05-20T12:01:53;96788.44;;;17.95;57.22
71917;BME280;59793;46.506;6.674;2023-05-20T12:04:19;96792.97;;;18.70;56.18
71917;BME280;59793;46.506;6.674;2023-05-20T12:06:45;96797.25;;;18.95;55.83
71917;BME280;59793;46.506;6.674;2023-05-20T12:09:10;96779.47;;;19.11;55.24
71917;BME280;59793;46.506;6.674;2023-05-20T12:11:36;96778.25;;;19.43;54.43
71917;BME280;59793;46.506;6.674;2023-05-20T12:14:04;96768.34;;;19.44;55.24
71917;BME280;59793;46.506;6.674;2023-05-20T12:16:32;96766.84;;;19.16;55.58
71917;BME280;59793;46.506;6.674;2023-05-20T12:18:57;96772.47;;;18.94;55.86
71917;BME280;59793;46.506;6.674;2023-05-20T12:21:22;96776.03;;;18.50;56.52
71917;BME280;59793;46.506;6.674;2023-05-20T12:23:47;96783.06;;;18.36;56.54
71917;BME280;59793;46.506;6.674;2023-05-20T12:26:13;96788.19;;;18.54;56.56
71917;BME280;59793;46.506;6.674;2023-05-20T12:28:39;96780.16;;;18.24;56.86
71917;BME280;59793;46.506;6.674;2023-05-20T12:31:04;96785.81;;;17.91;57.69
71917;BME280;59793;46.506;6.674;2023-05-20T12:33:30;96789.00;;;17.68;58.61
71917;BME280;59793;46.506;6.674;2023-05-20T12:35:55;96783.78;;;18.03;59.85
71917;BME280;59793;46.506;6.674;2023-05-20T12:38:20;96786.13;;;17.45;57.94
71917;BME280;59793;46.506;6.674;2023-05-20T12:40:46;96781.84;;;17.03;59.84
71917;BME280;59793;46.506;6.674;2023-05-20T12:43:11;96784.81;;;17.19;59.49
71917;BME280;59793;46.506;6.674;2023-05-20T12:45:36;96780.91;;;17.31;59.10
71917;BME280;59793;46.506;6.674;2023-05-20T12:48:02;96779.78;;;17.32;59.21
71917;BME280;59793;46.506;6.674;2023-05-20T12:50:28;96778.91;;;17.42;59.56
71917;BME280;59793;46.506;6.674;2023-05-20T12:52:53;96777.25;;;17.62;59.31
71917;BME280;59793;46.506;6.674;2023-05-20T12:55:19;96783.19;;;17.84;57.44
71917;BME280;59793;46.506;6.674;2023-05-20T12:57:45;96781.03;;;17.09;59.18